createdAt,value
2022-08-20T00:00:36.322Z,66.20
2022-08-20T00:01:11.604Z,66.05
2022-08-20T00:01:44.007Z,66.32
2022-08-20T00:02:16.724Z,66.18
2022-08-20T00:02:56.083Z,66.20
2022-08-20T00:03:33.907Z,66.25
2022-08-20T00:04:06.199Z,66.10
2022-08-20T00:04:41.799Z,66.29
2022-08-20T00:05:16.636Z,66.42
2022-08-20T00:05:52.919Z,66.28
2022-08-20T00:06:31.514Z,66.38
2022-08-20T00:07:03.778Z,66.74
2022-08-20T00:07:35.954Z,66.32
2022-08-20T00:08:12.689Z,66.47
2022-08-20T00:08:46.366Z,66.83
2022-08-20T00:09:21.182Z,66.87
2022-08-20T00:09:53.468Z,66.79
2022-08-20T00:10:26.341Z,66.74
2022-08-20T00:11:02.411Z,67.31
2022-08-20T00:11:35.279Z,67.06
2022-08-20T00:12:09.207Z,66.81
2022-08-20T00:12:48.280Z,66.81
2022-08-20T00:13:28.401Z,67.00
2022-08-20T00:14:03.061Z,67.35
2022-08-20T00:14:38.341Z,67.02
2022-08-20T00:15:12.527Z,67.42
2022-08-20T00:15:48.052Z,67.00
2022-08-20T00:16:22.795Z,67.22
2022-08-20T00:16:55.007Z,67.18
2022-08-20T00:17:36.629Z,67.42
2022-08-20T00:18:09.495Z,67.17
2022-08-20T00:18:47.742Z,67.43
2022-08-20T00:19:23.861Z,67.38
2022-08-20T00:19:59.571Z,67.36
2022-08-20T00:20:41.702Z,67.38
2022-08-20T00:21:19.502Z,67.41
2022-08-20T00:21:51.763Z,67.22
2022-08-20T00:22:30.113Z,67.54
2022-08-20T00:23:09.816Z,67.17
2022-08-20T00:23:43.700Z,67.35
2022-08-20T00:24:15.880Z,67.45
2022-08-20T00:24:50.641Z,67.46
2022-08-20T00:25:23.989Z,67.41
2022-08-20T00:25:56.271Z,67.46
2022-08-20T00:26:31.249Z,67.32
2022-08-20T00:27:03.779Z,67.08
2022-08-20T00:27:35.957Z,67.32
2022-08-20T00:28:12.060Z,67.11
2022-08-20T00:28:44.204Z,67.20
2022-08-20T00:29:16.562Z,67.64
2022-08-20T00:29:54.975Z,67.59
2022-08-20T00:30:27.611Z,67.42
2022-08-20T00:30:59.972Z,67.19
2022-08-20T00:31:35.210Z,67.69
2022-08-20T00:32:07.716Z,67.60
2022-08-20T00:32:44.397Z,67.71
2022-08-20T00:33:26.340Z,67.76
2022-08-20T00:34:01.351Z,67.82
2022-08-20T00:34:33.717Z,67.71
2022-08-20T00:35:09.139Z,67.90
2022-08-20T00:35:49.710Z,67.66
2022-08-20T00:36:32.769Z,67.63
2022-08-20T00:37:05.770Z,67.84
2022-08-20T00:37:37.941Z,68.06
2022-08-20T00:38:12.790Z,67.61
2022-08-20T00:38:46.902Z,68.06
2022-08-20T00:39:19.095Z,67.76
2022-08-20T00:39:53.943Z,67.98
2022-08-20T00:40:30.120Z,68.06
2022-08-20T00:41:02.870Z,67.98
2022-08-20T00:41:37.783Z,68.09
2022-08-20T00:42:10.126Z,68.40
2022-08-20T00:42:44.115Z,68.40
2022-08-20T00:43:38.941Z,68.33
2022-08-20T00:44:15.808Z,68.03
2022-08-20T00:44:48.285Z,68.17
2022-08-20T00:45:23.867Z,68.42
2022-08-20T00:45:57.500Z,68.32
2022-08-20T00:46:31.998Z,68.40
2022-08-20T00:47:09.345Z,68.40
2022-08-20T00:47:42.290Z,68.87
2022-08-20T00:48:25.371Z,68.97
2022-08-20T00:49:04.016Z,68.71
2022-08-20T00:49:36.141Z,68.91
2022-08-20T00:50:09.719Z,68.79
2022-08-20T00:50:44.522Z,69.04
2022-08-20T00:51:26.209Z,68.88
2022-08-20T00:52:04.987Z,68.78
2022-08-20T00:52:38.150Z,68.94
2022-08-20T00:53:10.279Z,68.87
2022-08-20T00:53:45.575Z,69.17
2022-08-20T00:54:25.073Z,69.23
2022-08-20T00:55:03.391Z,69.12
2022-08-20T00:55:36.362Z,69.33
2022-08-20T00:56:11.507Z,69.25
2022-08-20T00:56:49.738Z,69.27
2022-08-20T00:57:25.345Z,69.21
2022-08-20T00:58:01.039Z,69.20
2022-08-20T00:58:38.487Z,69.61
2022-08-20T00:59:16.521Z,69.09
2022-08-20T00:59:54.446Z,69.51
2022-08-20T01:00:29.497Z,69.17
2022-08-20T01:01:01.800Z,69.69
2022-08-20T01:01:54.855Z,69.37
2022-08-20T01:02:29.500Z,69.52
2022-08-20T01:03:04.552Z,69.24
2022-08-20T01:03:37.423Z,69.31
2022-08-20T01:04:12.106Z,69.30
2022-08-20T01:04:50.098Z,69.65
2022-08-20T01:05:28.680Z,69.55
2022-08-20T01:06:04.862Z,69.48
2022-08-20T01:06:37.367Z,69.44
2022-08-20T01:07:12.284Z,69.37
2022-08-20T01:07:45.741Z,69.75
2022-08-20T01:08:21.869Z,69.67
2022-08-20T01:08:56.621Z,69.97
2022-08-20T01:09:50.299Z,69.49
2022-08-20T01:10:26.349Z,69.90
2022-08-20T01:11:10.241Z,69.79
2022-08-20T01:11:42.430Z,69.91
2022-08-20T01:12:19.199Z,69.91
2022-08-20T01:12:59.474Z,69.70
2022-08-20T01:13:32.056Z,69.99
2022-08-20T01:14:24.686Z,69.70
2022-08-20T01:14:59.974Z,69.93
2022-08-20T01:15:32.290Z,70.29
2022-08-20T01:16:14.511Z,70.02
2022-08-20T01:16:52.931Z,69.79
2022-08-20T01:17:26.966Z,70.26
2022-08-20T01:18:05.085Z,70.22
2022-08-20T01:18:39.088Z,69.69
2022-08-20T01:19:29.638Z,69.69
2022-08-20T01:20:13.702Z,69.70
2022-08-20T01:20:50.309Z,69.79
2022-08-20T01:21:28.148Z,69.82
2022-08-20T01:22:22.807Z,69.59
2022-08-20T01:23:17.717Z,69.93
2022-08-20T01:23:59.427Z,69.76
2022-08-20T01:24:36.847Z,69.86
2022-08-20T01:25:19.507Z,70.15
2022-08-20T01:26:00.379Z,70.44
2022-08-20T01:26:40.361Z,70.18
2022-08-20T01:27:12.527Z,70.17
2022-08-20T01:27:46.166Z,70.19
2022-08-20T01:28:22.213Z,70.26
2022-08-20T01:29:00.084Z,70.26
2022-08-20T01:29:36.684Z,70.22
2022-08-20T01:30:09.925Z,70.60
2022-08-20T01:30:45.628Z,70.23
2022-08-20T01:31:20.446Z,70.42
2022-08-20T01:32:01.354Z,70.33
2022-08-20T01:32:33.446Z,70.69
2022-08-20T01:33:06.287Z,70.60
2022-08-20T01:33:42.052Z,70.26
2022-08-20T01:34:21.921Z,70.22
2022-08-20T01:34:54.132Z,70.30
2022-08-20T01:35:29.082Z,70.31
2022-08-20T01:36:03.891Z,70.49
2022-08-20T01:36:44.260Z,70.31
2022-08-20T01:37:18.384Z,70.49
2022-08-20T01:37:53.211Z,70.53
2022-08-20T01:38:25.514Z,70.22
2022-08-20T01:39:00.654Z,70.63
2022-08-20T01:39:36.173Z,70.51
2022-08-20T01:40:14.295Z,70.42
2022-08-20T01:41:10.077Z,70.32
2022-08-20T01:41:52.743Z,70.81
2022-08-20T01:42:33.043Z,70.78
2022-08-20T01:43:07.775Z,70.70
2022-08-20T01:43:42.006Z,71.11
2022-08-20T01:44:18.748Z,70.99
2022-08-20T01:44:52.990Z,70.78
2022-08-20T01:45:28.058Z,70.75
2022-08-20T01:46:05.897Z,70.69
2022-08-20T01:46:43.652Z,70.78
2022-08-20T01:47:22.683Z,70.70
2022-08-20T01:47:55.017Z,71.02
2022-08-20T01:48:27.364Z,70.64
2022-08-20T01:49:03.368Z,70.63
2022-08-20T01:49:51.532Z,70.93
2022-08-20T01:50:27.792Z,70.73
2022-08-20T01:51:09.118Z,70.95
2022-08-20T01:51:42.151Z,70.69
2022-08-20T01:52:22.950Z,70.35
2022-08-20T01:53:04.578Z,70.50
2022-08-20T01:53:39.069Z,70.66
2022-08-20T01:54:14.515Z,70.40
2022-08-20T01:54:46.894Z,70.10
2022-08-20T01:55:19.771Z,70.12
2022-08-20T01:55:55.512Z,70.43
2022-08-20T01:56:33.167Z,70.15
2022-08-20T01:57:12.595Z,70.13
2022-08-20T01:57:45.281Z,69.89
2022-08-20T01:58:20.042Z,69.98
2022-08-20T01:58:56.297Z,70.37
2022-08-20T01:59:34.088Z,70.29
2022-08-20T02:00:08.869Z,70.13
2022-08-20T02:00:46.788Z,70.45
2022-08-20T02:01:24.865Z,70.35
2022-08-20T02:01:59.008Z,70.27
2022-08-20T02:02:31.319Z,70.45
2022-08-20T02:03:08.571Z,70.08
2022-08-20T02:03:44.782Z,70.49
2022-08-20T02:04:20.215Z,70.18
2022-08-20T02:04:52.703Z,70.37
2022-08-20T02:05:25.120Z,70.12
2022-08-20T02:06:05.510Z,70.51
2022-08-20T02:06:56.797Z,70.61
2022-08-20T02:07:32.552Z,70.68
2022-08-20T02:08:05.931Z,70.65
2022-08-20T02:08:38.500Z,70.59
2022-08-20T02:09:16.135Z,70.32
2022-08-20T02:09:49.667Z,70.44
2022-08-20T02:10:23.110Z,70.50
2022-08-20T02:11:00.462Z,70.36
2022-08-20T02:11:34.500Z,70.60
2022-08-20T02:12:09.051Z,70.63
2022-08-20T02:12:43.813Z,70.75
2022-08-20T02:13:16.517Z,70.53
2022-08-20T02:13:52.655Z,70.68
2022-08-20T02:14:27.984Z,70.66
2022-08-20T02:15:00.655Z,70.97
2022-08-20T02:15:37.125Z,70.83
2022-08-20T02:16:14.511Z,70.87
2022-08-20T02:16:54.707Z,71.05
2022-08-20T02:17:28.276Z,71.14
2022-08-20T02:18:03.009Z,71.10
2022-08-20T02:18:38.260Z,70.74
2022-08-20T02:19:13.535Z,70.63
2022-08-20T02:19:49.241Z,71.17
2022-08-20T02:20:30.218Z,71.25
2022-08-20T02:21:03.092Z,70.77
2022-08-20T02:21:37.967Z,71.24
2022-08-20T02:22:20.800Z,71.13
2022-08-20T02:22:56.743Z,71.12
2022-08-20T02:23:28.953Z,70.98
2022-08-20T02:24:03.807Z,71.36
2022-08-20T02:24:36.054Z,71.14
2022-08-20T02:25:10.978Z,71.46
2022-08-20T02:25:48.372Z,71.05
2022-08-20T02:26:24.375Z,71.11
2022-08-20T02:26:56.855Z,71.38
2022-08-20T02:27:31.624Z,71.32
2022-08-20T02:28:10.604Z,70.98
2022-08-20T02:28:45.399Z,71.40
2022-08-20T02:29:17.953Z,71.06
2022-08-20T02:29:50.555Z,71.28
2022-08-20T02:30:29.941Z,71.12
2022-08-20T02:31:03.559Z,71.15
2022-08-20T02:31:43.568Z,71.22
2022-08-20T02:32:33.994Z,71.03
2022-08-20T02:33:10.734Z,71.33
2022-08-20T02:34:22.218Z,71.39
2022-08-20T02:34:37.798Z,71.39
2022-08-20T02:35:13.402Z,71.32
2022-08-20T02:35:51.578Z,71.36
2022-08-20T02:36:23.754Z,71.00
2022-08-20T02:36:56.436Z,70.98
2022-08-20T02:37:31.252Z,71.00
2022-08-20T02:38:03.744Z,71.26
2022-08-20T02:38:35.908Z,70.99
2022-08-20T02:39:14.372Z,71.17
2022-08-20T02:39:46.669Z,70.96
2022-08-20T02:40:30.356Z,71.47
2022-08-20T02:41:05.849Z,71.14
2022-08-20T02:41:41.396Z,71.57
2022-08-20T02:42:14.635Z,71.21
2022-08-20T02:42:49.362Z,71.57
2022-08-20T02:43:21.721Z,71.53
2022-08-20T02:43:53.920Z,71.25
2022-08-20T02:44:29.011Z,71.58
2022-08-20T02:45:01.502Z,71.26
2022-08-20T02:45:37.431Z,71.20
2022-08-20T02:46:12.981Z,71.50
2022-08-20T02:46:45.223Z,70.92
2022-08-20T02:47:17.538Z,71.43
2022-08-20T02:47:54.431Z,71.06
2022-08-20T02:48:27.561Z,71.26
2022-08-20T02:49:00.072Z,71.25
2022-08-20T02:49:35.137Z,71.11
2022-08-20T02:50:11.753Z,71.09
2022-08-20T02:50:44.383Z,70.91
2022-08-20T02:51:19.161Z,70.72
2022-08-20T02:52:02.698Z,70.76
2022-08-20T02:52:34.903Z,70.92
2022-08-20T02:53:09.690Z,70.66
2022-08-20T02:53:42.282Z,70.76
2022-08-20T02:54:14.517Z,70.83
2022-08-20T02:54:50.395Z,70.74
2022-08-20T02:55:27.994Z,70.87
2022-08-20T02:56:01.110Z,71.02
2022-08-20T02:56:36.362Z,70.80
2022-08-20T02:57:15.880Z,71.08
2022-08-20T02:57:48.106Z,71.17
2022-08-20T02:58:27.098Z,71.14
2022-08-20T02:58:59.247Z,71.14
2022-08-20T02:59:31.584Z,70.84
2022-08-20T03:00:05.996Z,70.49
2022-08-20T03:00:41.049Z,70.60
2022-08-20T03:01:15.698Z,70.85
2022-08-20T03:01:59.970Z,70.83
2022-08-20T03:02:33.146Z,71.05
2022-08-20T03:03:06.181Z,70.85
2022-08-20T03:03:41.099Z,70.65
2022-08-20T03:04:13.218Z,70.75
2022-08-20T03:04:45.538Z,70.74
2022-08-20T03:05:17.842Z,70.76
2022-08-20T03:05:55.312Z,71.15
2022-08-20T03:06:28.271Z,70.79
2022-08-20T03:07:00.499Z,70.67
2022-08-20T03:07:35.903Z,70.97
2022-08-20T03:08:09.566Z,70.81
2022-08-20T03:08:41.884Z,71.01
2022-08-20T03:09:16.651Z,70.59
2022-08-20T03:09:48.838Z,70.75
2022-08-20T03:10:25.693Z,70.92
2022-08-20T03:11:00.658Z,70.94
2022-08-20T03:11:33.094Z,71.01
2022-08-20T03:12:07.672Z,70.58
2022-08-20T03:12:42.636Z,70.99
2022-08-20T03:13:18.622Z,70.67
2022-08-20T03:13:51.634Z,70.43
2022-08-20T03:14:24.306Z,70.99
2022-08-20T03:14:59.283Z,70.88
2022-08-20T03:15:33.585Z,70.47
2022-08-20T03:16:06.368Z,70.86
2022-08-20T03:16:41.170Z,70.86
2022-08-20T03:17:13.594Z,70.94
2022-08-20T03:17:45.929Z,70.63
2022-08-20T03:18:22.113Z,70.65
2022-08-20T03:18:54.372Z,70.86
2022-08-20T03:19:27.281Z,71.00
2022-08-20T03:20:02.036Z,70.73
2022-08-20T03:20:34.930Z,70.58
2022-08-20T03:21:08.207Z,70.58
2022-08-20T03:21:45.196Z,70.30
2022-08-20T03:22:17.418Z,70.33
2022-08-20T03:22:49.591Z,70.35
2022-08-20T03:23:24.791Z,70.64
2022-08-20T03:23:56.929Z,70.65
2022-08-20T03:24:29.161Z,70.26
2022-08-20T03:25:04.172Z,70.15
2022-08-20T03:25:36.698Z,70.06
2022-08-20T03:26:12.364Z,70.65
2022-08-20T03:26:47.523Z,70.24
2022-08-20T03:27:19.723Z,70.56
2022-08-20T03:27:59.287Z,70.29
2022-08-20T03:28:34.275Z,70.46
2022-08-20T03:29:06.441Z,70.68
2022-08-20T03:29:38.711Z,70.65
2022-08-20T03:30:18.327Z,70.38
2022-08-20T03:30:51.569Z,70.73
2022-08-20T03:31:23.809Z,70.53
2022-08-20T03:31:58.594Z,70.67
2022-08-20T03:32:30.731Z,70.80
2022-08-20T03:33:03.219Z,70.81
2022-08-20T03:33:39.550Z,71.06
2022-08-20T03:34:25.482Z,70.68
2022-08-20T03:34:57.807Z,70.94
2022-08-20T03:35:34.206Z,70.80
2022-08-20T03:36:10.700Z,71.00
2022-08-20T03:36:43.011Z,71.01
2022-08-20T03:37:15.228Z,70.96
2022-08-20T03:37:50.521Z,70.99
2022-08-20T03:38:32.360Z,70.85
2022-08-20T03:39:13.344Z,70.47
2022-08-20T03:39:45.616Z,70.74
2022-08-20T03:40:20.506Z,70.65
2022-08-20T03:40:55.328Z,70.44
2022-08-20T03:41:29.236Z,70.33
2022-08-20T03:42:01.486Z,70.56
2022-08-20T03:42:36.585Z,70.45
2022-08-20T03:43:12.553Z,70.60
2022-08-20T03:43:47.630Z,70.22
2022-08-20T03:44:20.159Z,70.58
2022-08-20T03:44:58.676Z,70.44
2022-08-20T03:45:36.090Z,69.98
2022-08-20T03:46:23.015Z,70.36
2022-08-20T03:46:56.118Z,70.37
2022-08-20T03:47:30.891Z,70.10
2022-08-20T03:48:04.858Z,70.04
2022-08-20T03:48:37.466Z,69.92
2022-08-20T03:49:12.800Z,69.85
2022-08-20T03:49:45.016Z,70.13
2022-08-20T03:50:23.524Z,69.77
2022-08-20T03:51:00.946Z,70.07
2022-08-20T03:51:53.578Z,69.89
2022-08-20T03:52:29.580Z,70.36
2022-08-20T03:53:02.668Z,69.98
2022-08-20T03:53:35.427Z,70.26
2022-08-20T03:54:10.191Z,70.44
2022-08-20T03:54:42.627Z,70.03
2022-08-20T03:55:14.879Z,70.29
2022-08-20T03:55:58.243Z,70.18
2022-08-20T03:56:32.702Z,69.73
2022-08-20T03:57:12.804Z,69.85
2022-08-20T03:57:48.697Z,70.07
2022-08-20T03:58:29.953Z,70.14
2022-08-20T03:59:07.362Z,70.12
2022-08-20T03:59:42.211Z,70.11
2022-08-20T04:00:20.769Z,70.17
2022-08-20T04:00:56.246Z,70.39
2022-08-20T04:01:44.920Z,70.31
2022-08-20T04:02:20.727Z,70.54
2022-08-20T04:02:53.397Z,70.03
2022-08-20T04:03:26.415Z,70.08
2022-08-20T04:04:01.439Z,70.21
2022-08-20T04:04:34.512Z,70.12
2022-08-20T04:05:07.826Z,69.71
2022-08-20T04:05:43.896Z,69.70
2022-08-20T04:06:16.579Z,69.63
2022-08-20T04:06:48.737Z,69.78
2022-08-20T04:07:25.985Z,69.69
2022-08-20T04:08:02.872Z,70.15
2022-08-20T04:08:35.640Z,69.74
2022-08-20T04:09:12.080Z,70.02
2022-08-20T04:09:44.601Z,70.02
2022-08-20T04:10:16.991Z,70.02
2022-08-20T04:10:53.186Z,70.06
2022-08-20T04:11:25.463Z,69.92
2022-08-20T04:12:00.374Z,69.97
2022-08-20T04:12:32.606Z,69.85
2022-08-20T04:13:10.145Z,69.93
2022-08-20T04:13:44.898Z,69.60
2022-08-20T04:14:18.666Z,69.39
2022-08-20T04:14:55.967Z,69.90
2022-08-20T04:15:29.162Z,69.92
2022-08-20T04:16:02.471Z,69.93
2022-08-20T04:16:37.876Z,69.71
2022-08-20T04:17:12.604Z,69.89
2022-08-20T04:17:47.330Z,69.52
2022-08-20T04:18:24.350Z,69.37
2022-08-20T04:19:02.197Z,69.35
2022-08-20T04:19:38.293Z,69.65
2022-08-20T04:20:13.668Z,69.61
2022-08-20T04:20:46.502Z,69.48
2022-08-20T04:21:21.281Z,69.51
2022-08-20T04:21:53.472Z,69.12
2022-08-20T04:22:25.627Z,69.31
2022-08-20T04:23:00.354Z,69.10
2022-08-20T04:23:33.087Z,69.05
2022-08-20T04:24:06.429Z,69.18
2022-08-20T04:24:41.168Z,68.66
2022-08-20T04:25:15.969Z,68.75
2022-08-20T04:25:48.894Z,68.74
2022-08-20T04:26:24.206Z,69.06
2022-08-20T04:26:56.575Z,68.55
2022-08-20T04:27:32.751Z,68.77
2022-08-20T04:28:10.920Z,68.51
2022-08-20T04:28:50.117Z,68.65
2022-08-20T04:29:22.799Z,68.64
2022-08-20T04:29:57.805Z,68.55
2022-08-20T04:30:30.766Z,68.36
2022-08-20T04:31:02.949Z,68.32
2022-08-20T04:31:37.676Z,68.34
2022-08-20T04:32:09.940Z,68.82
2022-08-20T04:32:42.556Z,68.65
2022-08-20T04:33:19.208Z,68.50
2022-08-20T04:34:08.089Z,68.27
2022-08-20T04:34:40.822Z,68.63
2022-08-20T04:35:18.130Z,68.81
2022-08-20T04:35:50.347Z,68.73
2022-08-20T04:36:22.515Z,68.47
2022-08-20T04:36:57.282Z,68.35
2022-08-20T04:37:30.420Z,68.31
2022-08-20T04:38:04.622Z,68.15
2022-08-20T04:38:50.449Z,68.65
2022-08-20T04:39:23.764Z,68.18
2022-08-20T04:40:11.178Z,68.10
2022-08-20T04:41:00.592Z,68.50
2022-08-20T04:41:32.857Z,68.52
2022-08-20T04:42:08.100Z,68.55
2022-08-20T04:42:40.442Z,68.22
2022-08-20T04:43:16.112Z,68.38
2022-08-20T04:43:54.600Z,68.62
2022-08-20T04:44:27.578Z,68.50
2022-08-20T04:44:59.750Z,68.51
2022-08-20T04:45:35.113Z,68.39
2022-08-20T04:46:09.874Z,68.46
2022-08-20T04:46:42.042Z,68.17
2022-08-20T04:47:23.945Z,68.15
2022-08-20T04:48:10.569Z,68.38
2022-08-20T04:48:49.041Z,68.22
2022-08-20T04:49:26.551Z,68.14
2022-08-20T04:50:00.559Z,68.53
2022-08-20T04:50:35.682Z,68.12
2022-08-20T04:51:15.078Z,68.41
2022-08-20T04:51:47.268Z,68.06
2022-08-20T04:52:19.379Z,68.29
2022-08-20T04:52:54.178Z,68.18
2022-08-20T04:53:28.177Z,67.97
2022-08-20T04:54:04.023Z,68.41
2022-08-20T04:54:36.214Z,68.12
2022-08-20T04:55:10.034Z,68.10
2022-08-20T04:55:46.959Z,68.56
2022-08-20T04:56:23.496Z,68.58
2022-08-20T04:56:55.952Z,68.04
2022-08-20T04:57:30.774Z,68.12
2022-08-20T04:58:05.032Z,68.46
2022-08-20T04:58:44.215Z,68.47
2022-08-20T04:59:18.913Z,68.19
2022-08-20T04:59:51.882Z,67.96
2022-08-20T05:00:26.853Z,68.24
2022-08-20T05:01:01.672Z,67.96
2022-08-20T05:01:36.676Z,67.79
2022-08-20T05:02:08.896Z,68.15
2022-08-20T05:02:42.274Z,67.86
2022-08-20T05:03:17.151Z,67.69
2022-08-20T05:03:50.124Z,68.02
2022-08-20T05:04:22.298Z,67.93
2022-08-20T05:04:57.031Z,68.14
2022-08-20T05:05:29.303Z,67.86
2022-08-20T05:06:02.017Z,67.74
2022-08-20T05:06:36.833Z,67.56
2022-08-20T05:07:11.089Z,67.69
2022-08-20T05:07:46.225Z,67.63
2022-08-20T05:08:23.487Z,67.81
2022-08-20T05:08:58.082Z,67.77
2022-08-20T05:09:32.583Z,67.45
2022-08-20T05:10:20.839Z,67.64
2022-08-20T05:11:06.591Z,67.77
2022-08-20T05:11:49.560Z,67.52
2022-08-20T05:12:21.822Z,67.60
2022-08-20T05:12:56.951Z,67.59
2022-08-20T05:13:32.144Z,67.46
2022-08-20T05:14:07.978Z,67.38
2022-08-20T05:14:43.034Z,67.27
2022-08-20T05:15:15.466Z,67.11
2022-08-20T05:15:51.194Z,66.99
2022-08-20T05:16:24.776Z,66.95
2022-08-20T05:17:00.249Z,67.30
2022-08-20T05:17:32.689Z,67.02
2022-08-20T05:18:07.946Z,66.74
2022-08-20T05:18:44.362Z,67.00
2022-08-20T05:19:22.776Z,66.98
2022-08-20T05:19:59.235Z,66.93
2022-08-20T05:20:34.227Z,67.09
2022-08-20T05:21:06.865Z,66.61
2022-08-20T05:21:42.715Z,66.56
2022-08-20T05:22:14.964Z,66.41
2022-08-20T05:22:47.180Z,66.63
2022-08-20T05:23:24.057Z,66.41
2022-08-20T05:23:56.255Z,66.24
2022-08-20T05:24:28.451Z,66.54
2022-08-20T05:25:03.350Z,66.10
2022-08-20T05:25:36.613Z,66.13
2022-08-20T05:26:09.899Z,65.93
2022-08-20T05:26:44.701Z,66.17
2022-08-20T05:27:24.573Z,66.01
2022-08-20T05:28:00.688Z,66.31
2022-08-20T05:28:36.903Z,66.46
2022-08-20T05:29:26.722Z,66.11
2022-08-20T05:30:08.802Z,66.28
2022-08-20T05:30:47.625Z,66.25
2022-08-20T05:31:22.613Z,66.24
2022-08-20T05:32:04.201Z,66.23
2022-08-20T05:32:44.341Z,66.06
2022-08-20T05:33:23.635Z,66.28
2022-08-20T05:33:57.830Z,66.26
2022-08-20T05:34:32.602Z,66.27
2022-08-20T05:35:07.838Z,65.97
2022-08-20T05:35:40.674Z,66.53
2022-08-20T05:36:15.495Z,66.04
2022-08-20T05:36:53.106Z,65.97
2022-08-20T05:37:27.818Z,66.44
2022-08-20T05:38:08.119Z,66.35
2022-08-20T05:38:40.362Z,66.04
2022-08-20T05:39:13.528Z,66.03
2022-08-20T05:39:48.382Z,66.29
2022-08-20T05:40:22.995Z,65.80
2022-08-20T05:40:55.358Z,66.21
2022-08-20T05:41:30.746Z,66.05
2022-08-20T05:42:03.051Z,66.00
2022-08-20T05:42:35.336Z,66.28
2022-08-20T05:43:10.282Z,65.99
2022-08-20T05:43:42.558Z,66.19
2022-08-20T05:44:15.664Z,65.91
2022-08-20T05:44:50.511Z,65.86
2022-08-20T05:45:25.261Z,65.63
2022-08-20T05:45:58.608Z,65.64
2022-08-20T05:46:34.560Z,65.47
2022-08-20T05:47:06.878Z,65.77
2022-08-20T05:47:42.784Z,65.72
2022-08-20T05:48:20.428Z,65.84
2022-08-20T05:48:52.659Z,65.65
2022-08-20T05:49:24.850Z,65.64
2022-08-20T05:50:00.474Z,65.38
2022-08-20T05:50:33.340Z,65.49
2022-08-20T05:51:05.782Z,65.47
2022-08-20T05:51:40.723Z,65.28
2022-08-20T05:52:13.069Z,65.23
2022-08-20T05:52:45.544Z,65.43
2022-08-20T05:53:21.915Z,65.54
2022-08-20T05:53:54.114Z,65.49
2022-08-20T05:54:26.407Z,65.51
2022-08-20T05:55:01.148Z,65.11
2022-08-20T05:55:33.689Z,65.10
2022-08-20T05:56:06.556Z,65.32
2022-08-20T05:56:41.780Z,65.00
2022-08-20T05:57:19.430Z,65.00
2022-08-20T05:57:57.716Z,65.15
2022-08-20T05:58:32.987Z,64.74
2022-08-20T05:59:07.150Z,64.86
2022-08-20T05:59:39.727Z,64.83
2022-08-20T06:00:14.852Z,65.20
2022-08-20T06:00:53.908Z,65.10
2022-08-20T06:01:26.199Z,64.92
2022-08-20T06:01:58.482Z,64.69
2022-08-20T06:03:00.640Z,64.94
2022-08-20T06:03:47.865Z,65.06
2022-08-20T06:04:26.806Z,64.85
2022-08-20T06:05:01.727Z,65.29
2022-08-20T06:05:34.646Z,64.60
2022-08-20T06:06:18.027Z,64.30
2022-08-20T06:07:07.772Z,64.22
2022-08-20T06:07:40.291Z,64.46
2022-08-20T06:08:13.385Z,64.13
2022-08-20T06:08:48.388Z,64.56
2022-08-20T06:09:31.030Z,64.02
2022-08-20T06:10:05.692Z,64.36
2022-08-20T06:10:42.681Z,63.81
2022-08-20T06:11:15.595Z,63.86
2022-08-20T06:11:47.734Z,63.57
2022-08-20T06:12:22.534Z,63.40
2022-08-20T06:12:54.720Z,63.41
2022-08-20T06:13:27.725Z,63.63
2022-08-20T06:14:02.618Z,63.44
2022-08-20T06:14:35.630Z,63.47
2022-08-20T06:15:08.821Z,63.20
2022-08-20T06:15:43.839Z,63.06
2022-08-20T06:16:18.541Z,63.08
2022-08-20T06:16:57.886Z,63.08
2022-08-20T06:17:39.261Z,63.44
2022-08-20T06:18:27.753Z,63.05
2022-08-20T06:19:02.931Z,63.15
2022-08-20T06:19:39.654Z,63.25
2022-08-20T06:20:16.466Z,62.76
2022-08-20T06:20:48.651Z,62.64
2022-08-20T06:21:23.358Z,62.71
2022-08-20T06:21:56.623Z,62.83
2022-08-20T06:22:28.894Z,62.61
2022-08-20T06:23:03.810Z,62.20
2022-08-20T06:23:35.981Z,62.34
2022-08-20T06:24:30.899Z,62.38
2022-08-20T06:25:04.369Z,62.52
2022-08-20T06:25:38.032Z,62.67
2022-08-20T06:26:12.915Z,62.49
2022-08-20T06:26:45.052Z,62.29
2022-08-20T06:27:17.280Z,61.92
2022-08-20T06:27:52.037Z,61.84
2022-08-20T06:28:24.561Z,61.78
2022-08-20T06:28:56.719Z,61.58
2022-08-20T06:29:33.374Z,61.49
2022-08-20T06:30:07.557Z,61.43
2022-08-20T06:30:40.288Z,61.75
2022-08-20T06:31:15.045Z,61.57
2022-08-20T06:31:49.828Z,61.37
2022-08-20T06:32:32.016Z,61.21
2022-08-20T06:33:04.978Z,61.58
2022-08-20T06:33:37.627Z,61.50
2022-08-20T06:34:12.378Z,61.30
2022-08-20T06:34:50.256Z,61.58
2022-08-20T06:35:26.014Z,61.23
2022-08-20T06:35:58.191Z,60.83
2022-08-20T06:36:30.336Z,61.28
2022-08-20T06:37:05.430Z,61.00
2022-08-20T06:37:39.977Z,60.83
2022-08-20T06:38:12.995Z,60.89
2022-08-20T06:38:47.859Z,60.97
2022-08-20T06:39:20.129Z,60.76
2022-08-20T06:39:52.777Z,60.40
2022-08-20T06:40:30.861Z,60.35
2022-08-20T06:41:03.164Z,60.34
2022-08-20T06:41:37.275Z,60.62
2022-08-20T06:42:09.626Z,60.31
2022-08-20T06:42:48.875Z,60.22
2022-08-20T06:43:21.619Z,60.24
2022-08-20T06:43:54.044Z,60.39
2022-08-20T06:44:29.212Z,60.21
2022-08-20T06:45:04.907Z,60.50
2022-08-20T06:45:39.095Z,60.23
2022-08-20T06:46:14.775Z,60.50
2022-08-20T06:46:49.539Z,60.49
2022-08-20T06:47:21.979Z,60.43
2022-08-20T06:47:58.969Z,60.47
2022-08-20T06:48:31.440Z,60.06
2022-08-20T06:49:04.472Z,59.97
2022-08-20T06:49:37.603Z,59.91
2022-08-20T06:50:13.789Z,59.76
2022-08-20T06:50:47.954Z,60.23
2022-08-20T06:51:23.463Z,60.38
2022-08-20T06:51:55.641Z,60.31
2022-08-20T06:52:51.967Z,60.03
2022-08-20T06:53:24.067Z,60.11
2022-08-20T06:53:56.755Z,60.07
2022-08-20T06:54:29.618Z,60.04
2022-08-20T06:55:04.518Z,59.93
2022-08-20T06:55:38.861Z,60.09
2022-08-20T06:56:22.774Z,60.11
2022-08-20T06:56:54.965Z,59.86
2022-08-20T06:57:27.468Z,60.16
2022-08-20T06:58:03.829Z,59.63
2022-08-20T06:58:38.835Z,59.85
2022-08-20T06:59:11.264Z,59.55
2022-08-20T06:59:49.024Z,59.92
2022-08-20T07:00:27.235Z,59.70
2022-08-20T07:01:09.275Z,59.64
2022-08-20T07:01:42.711Z,59.32
2022-08-20T07:02:17.605Z,59.61
2022-08-20T07:02:52.331Z,59.24
2022-08-20T07:03:24.811Z,59.38
2022-08-20T07:03:59.693Z,59.02
2022-08-20T07:04:34.557Z,59.29
2022-08-20T07:05:08.179Z,58.97
2022-08-20T07:05:43.420Z,59.39
2022-08-20T07:06:18.341Z,59.16
2022-08-20T07:06:52.107Z,59.43
2022-08-20T07:07:24.286Z,59.22
2022-08-20T07:08:01.054Z,59.33
2022-08-20T07:08:33.802Z,59.16
2022-08-20T07:09:05.931Z,59.14
2022-08-20T07:09:40.666Z,59.35
2022-08-20T07:10:14.620Z,58.93
2022-08-20T07:10:49.385Z,58.95
2022-08-20T07:11:27.387Z,58.73
2022-08-20T07:12:00.636Z,58.87
2022-08-20T07:12:36.610Z,59.01
2022-08-20T07:13:09.449Z,58.59
2022-08-20T07:13:45.474Z,58.54
2022-08-20T07:14:18.480Z,58.68
2022-08-20T07:14:50.608Z,58.09
2022-08-20T07:15:27.851Z,58.06
2022-08-20T07:16:00.105Z,58.23
2022-08-20T07:16:32.943Z,58.21
2022-08-20T07:17:09.647Z,57.91
2022-08-20T07:17:55.518Z,57.69
2022-08-20T07:18:33.711Z,57.94
2022-08-20T07:19:06.454Z,57.53
2022-08-20T07:19:38.622Z,57.76
2022-08-20T07:20:17.330Z,58.09
2022-08-20T07:20:49.828Z,58.05
2022-08-20T07:21:23.032Z,58.10
2022-08-20T07:21:57.856Z,57.83
2022-08-20T07:22:30.637Z,57.57
2022-08-20T07:23:03.270Z,57.55
2022-08-20T07:23:38.039Z,57.95
2022-08-20T07:24:10.622Z,57.29
2022-08-20T07:24:46.008Z,57.57
2022-08-20T07:25:24.929Z,57.62
2022-08-20T07:25:57.155Z,57.38
2022-08-20T07:26:32.069Z,57.25
2022-08-20T07:27:05.096Z,57.22
2022-08-20T07:27:37.648Z,57.18
2022-08-20T07:28:16.530Z,57.02
2022-08-20T07:28:49.052Z,57.08
2022-08-20T07:29:21.704Z,57.23
2022-08-20T07:30:12.709Z,56.65
2022-08-20T07:31:12.290Z,56.73
2022-08-20T07:32:01.412Z,57.05
2022-08-20T07:32:39.473Z,56.68
2022-08-20T07:33:14.616Z,56.93
2022-08-20T07:33:50.690Z,56.95
2022-08-20T07:34:22.973Z,56.60
2022-08-20T07:34:55.279Z,56.84
2022-08-20T07:35:30.222Z,56.79
2022-08-20T07:36:04.193Z,56.60
2022-08-20T07:36:38.938Z,56.58
2022-08-20T07:37:11.120Z,56.46
2022-08-20T07:37:45.072Z,56.28
2022-08-20T07:38:24.643Z,56.68
2022-08-20T07:38:57.235Z,56.55
2022-08-20T07:39:31.978Z,56.29
2022-08-20T07:40:06.233Z,56.40